Time;durP1;ratioP1;P1;durP2;ratioP2;P2;SDS_P1;SDS_P2;PMS_P1;PMS_P2;Temp;Humidity;BMP_temperature;BMP_pressure;BME280_temperature;BME280_humidity;BME280_pressure;Samples;Min_cycle;Max_cycle;Signal;HPM_P1;HPM_P2
2022/01/25 00:08:21;;;;;;;;;;;;;;;3.67;100.00;97848.44;4984457;28;20076;-59
2022/01/25 00:10:36;;;;;;;84.88;20.85;;;;;;;3.55;100.00;97846.38;4973587;28;20058;-59
2022/01/25 00:27:08;;;;;;;61.85;19.65;;;;;;;3.21;100.00;97823.53;4996784;28;20184;-55
2022/01/25 00:29:49;;;;;;;131.05;22.75;;;;;;;3.74;100.00;97834.19;4998503;28;20211;-59
2022/01/25 00:32:22;;;;;;;127.60;22.58;;;;;;;3.69;100.00;97830.13;4996757;28;20074;-56
2022/01/25 00:34:51;;;;;;;199.95;24.92;;;;;;;3.20;100.00;97821.81;5000792;28;20080;-57
2022/01/25 00:37:21;;;;;;;118.07;22.83;;;;;;;3.70;100.00;97826.59;4992607;28;20054;-55
2022/01/25 00:39:51;;;;;;;145.70;22.02;;;;;;;3.98;100.00;97824.41;4993324;28;20074;-59
2022/01/25 00:42:20;;;;;;;146.20;22.70;;;;;;;3.41;100.00;97820.06;5000912;28;20462;-58
2022/01/25 00:44:49;;;;;;;98.78;21.92;;;;;;;3.33;100.00;97818.59;4996385;28;20097;-56
2022/01/25 00:47:20;;;;;;;131.90;21.80;;;;;;;4.08;100.00;97816.16;5001574;28;20076;-54
2022/01/25 00:49:52;;;;;;;149.85;22.75;;;;;;;3.98;100.00;97820.97;4996441;28;20475;-57
2022/01/25 00:53:52;;;;;;;188.25;24.15;;;;;;;4.30;100.00;97816.84;5002221;28;20488;-58
2022/01/25 00:55:13;;;;;;;210.98;23.30;;;;;;;4.30;100.00;97827.28;4998887;28;20061;-57
2022/01/25 00:58:00;;;;;;;142.32;23.08;;;;;;;3.55;100.00;97817.69;5001684;28;20479;-54
2022/01/25 01:00:38;;;;;;;137.15;23.33;;;;;;;3.41;100.00;97810.47;4998184;28;20069;-59
2022/01/25 01:03:06;;;;;;;171.07;24.45;;;;;;;3.11;100.00;97810.03;4995633;28;20065;-59
2022/01/25 01:05:35;;;;;;;165.50;24.10;;;;;;;3.59;100.00;97828.84;4999644;28;20077;-57
2022/01/25 01:08:17;;;;;;;162.93;23.65;;;;;;;3.87;100.00;97833.66;5003765;28;20462;-57
2022/01/25 01:10:46;;;;;;;144.05;23.38;;;;;;;3.65;100.00;97826.81;4995622;28;20082;-58
2022/01/25 01:16:29;;;;;;;211.35;24.48;;;;;;;4.49;100.00;97835.97;4996232;28;20528;-56
2022/01/25 01:30:07;;;;;;;152.23;23.48;;;;;;;3.46;100.00;97833.72;4979977;28;20078;-57
2022/01/25 01:33:09;;;;;;;110.75;22.60;;;;;;;3.33;100.00;97831.66;4980969;28;20062;-56
2022/01/25 01:36:03;;;;;;;160.20;20.77;;;;;;;3.13;100.00;97823.81;4990896;28;20077;-56
2022/01/25 01:39:10;;;;;;;76.38;19.25;;;;;;;4.01;100.00;97828.66;4993401;28;20074;-53
2022/01/25 01:41:51;;;;;;;;;;;;;;;4.21;100.00;97828.59;4991944;28;20069;-56
2022/01/25 01:44:22;;;;;;;86.20;18.27;;;;;;;3.79;100.00;97834.00;5008609;28;20064;-55
2022/01/25 01:47:04;;;;;;;143.90;21.02;;;;;;;3.98;100.00;97828.78;5020162;28;20117;-55
2022/01/25 01:49:39;;;;;;;130.73;20.25;;;;;;;3.95;100.00;97834.16;4994552;28;20081;-57
2022/01/25 01:52:08;;;;;;;107.07;20.00;;;;;;;4.08;100.00;97843.13;4995611;28;20466;-58
2022/01/25 01:54:37;;;;;;;154.27;21.35;;;;;;;4.24;100.00;97838.88;4997321;28;20101;-58
2022/01/25 01:57:06;;;;;;;98.63;20.88;;;;;;;3.56;100.00;97835.03;5006941;28;20061;-59
2022/01/25 01:59:36;;;;;;;93.80;20.30;;;;;;;2.97;100.00;97841.03;4992244;28;20089;-57
2022/01/25 02:02:05;;;;;;;120.97;21.35;;;;;;;2.66;100.00;97842.28;4998658;28;20084;-60
2022/01/25 02:04:35;;;;;;;77.83;19.03;;;;;;;2.61;100.00;97837.28;4996051;28;20058;-59
2022/01/25 02:07:04;;;;;;;127.95;21.58;;;;;;;2.88;100.00;97829.22;4999550;28;20058;-59
2022/01/25 02:09:32;;;;;;;137.32;21.65;;;;;;;3.13;100.00;97822.97;4996851;28;20065;-58
2022/01/25 02:12:01;;;;;;;104.30;19.50;;;;;;;3.25;100.00;97820.72;4994570;28;20073;-57
2022/01/25 02:14:33;;;;;;;145.30;20.50;;;;;;;3.68;100.00;97817.97;5005347;28;20074;-56
2022/01/25 02:17:10;;;;;;;151.02;21.42;;;;;;;3.84;100.00;97815.53;5004175;28;20070;-56
2022/01/25 02:22:35;;;;;;;107.43;20.45;;;;;;;3.60;100.00;97813.09;4996011;28;20065;-56
2022/01/25 02:25:04;;;;;;;133.13;21.48;;;;;;;3.54;100.00;97816.84;4994828;28;20543;-59
2022/01/25 02:27:33;;;;;;;153.43;21.73;;;;;;;3.83;100.00;97804.25;5004261;28;20069;-56
2022/01/25 02:30:01;;;;;;;155.48;22.85;;;;;;;3.73;100.00;97814.25;4996379;28;20441;-57
2022/01/25 02:32:30;;;;;;;134.02;21.60;;;;;;;3.61;100.00;97806.13;5004390;28;20057;-58
2022/01/25 02:35:02;;;;;;;211.45;25.00;;;;;;;3.59;100.00;97810.56;5003950;28;20069;-55
2022/01/25 02:37:32;;;;;;;218.07;23.90;;;;;;;3.88;100.00;97817.91;4997736;28;20080;-56
2022/01/25 02:40:01;;;;;;;165.85;23.08;;;;;;;3.69;100.00;97814.47;5001265;28;20068;-54
2022/01/25 02:42:29;;;;;;;98.25;19.00;;;;;;;3.62;100.00;97815.66;5006766;28;20070;-55
2022/01/25 02:44:58;;;;;;;182.50;24.23;;;;;;;3.16;100.00;97802.84;5000141;28;20341;-57
2022/01/25 02:50:13;;;;;;;123.10;20.63;;;;;;;3.44;100.00;97807.72;4977471;28;20074;-57
2022/01/25 02:52:43;;;;;;;115.38;19.88;;;;;;;3.37;100.00;97811.50;4973785;28;20552;-56
2022/01/25 02:55:11;;;;;;;98.55;18.73;;;;;;;3.39;100.00;97808.84;4981970;28;20065;-56
2022/01/25 02:57:40;;;;;;;140.15;21.35;;;;;;;3.07;100.00;97800.66;4975915;28;20062;-52
2022/01/25 03:00:09;;;;;;;74.90;18.38;;;;;;;2.87;100.00;97809.31;4974416;28;20074;-56
2022/01/25 03:02:38;;;;;;;93.45;19.00;;;;;;;3.02;100.00;97798.22;4973069;28;20176;-55
2022/01/25 03:05:07;;;;;;;170.57;22.50;;;;;;;3.04;100.00;97800.78;4975466;28;20494;-57
2022/01/25 03:07:38;;;;;;;142.13;21.67;;;;;;;3.13;100.00;97809.94;4977352;28;20066;-57
2022/01/25 03:10:08;;;;;;;114.07;20.55;;;;;;;3.18;100.00;97805.41;4973752;28;20085;-55
2022/01/25 03:12:42;;;;;;;;;;;;;;;2.68;100.00;97805.75;4971674;28;20067;-56
2022/01/25 03:15:29;;;;;;;133.68;20.38;;;;;;;3.13;100.00;97807.34;4979025;28;19921;-59
2022/01/25 03:18:01;;;;;;;56.67;18.05;;;;;;;2.53;100.00;97805.47;5001499;28;20070;-60
2022/01/25 03:20:49;;;;;;;95.18;19.88;;;;;;;2.43;100.00;97817.16;4994455;28;20496;-57
2022/01/25 03:23:20;;;;;;;151.27;21.48;;;;;;;2.33;100.00;97815.84;4996357;28;20077;-58
2022/01/25 03:25:50;;;;;;;122.38;19.95;;;;;;;2.64;100.00;97810.25;4993435;28;20066;-55
2022/01/25 03:28:19;;;;;;;;;;;;;;;2.99;100.00;97810.53;5008143;28;20090;-57
2022/01/25 03:30:48;;;;;;;122.50;20.70;;;;;;;3.29;100.00;97797.97;4999179;28;19980;-55
2022/01/25 03:33:18;;;;;;;125.85;21.48;;;;;;;3.37;100.00;97793.25;4996303;28;20064;-53
2022/01/25 03:35:46;;;;;;;153.43;21.98;;;;;;;3.05;100.00;97790.28;4995696;28;20078;-59
2022/01/25 03:38:15;;;;;;;109.07;19.05;;;;;;;3.42;100.00;97806.09;5004957;28;20488;-57
2022/01/25 03:40:45;;;;;;;96.63;19.73;;;;;;;3.13;100.00;97797.75;4996886;28;20116;-56
2022/01/25 03:43:18;;;;;;;;;;;;;;;3.60;100.00;97800.06;4992054;28;20069;-58
2022/01/25 03:45:58;;;;;;;72.68;17.27;;;;;;;2.72;100.00;97796.91;5000408;28;19952;-58
2022/01/25 03:51:13;;;;;;;76.95;19.17;;;;;;;2.52;100.00;97801.19;4998299;28;20065;-59
2022/01/25 03:53:41;;;;;;;79.07;19.90;;;;;;;2.85;100.00;97792.88;4996137;28;20077;-58
2022/01/25 03:56:09;;;;;;;136.20;21.63;;;;;;;2.69;100.00;97786.63;5000152;28;20082;-53
2022/01/25 03:58:39;;;;;;;158.77;21.58;;;;;;;2.56;100.00;97775.88;5002285;28;20575;-55
2022/01/25 04:01:08;;;;;;;143.40;20.90;;;;;;;2.66;100.00;97784.16;4999288;28;20069;-57
2022/01/25 04:03:42;;;;;;;160.95;22.83;;;;;;;3.44;100.00;97786.88;4991813;28;20065;-58
2022/01/25 04:06:17;;;;;;;122.57;20.35;;;;;;;3.12;100.00;97790.03;5001678;28;20555;-56
2022/01/25 04:08:45;;;;;;;89.65;19.38;;;;;;;3.28;100.00;97772.81;4994731;28;20571;-55
2022/01/25 04:11:14;;;;;;;132.95;20.73;;;;;;;3.35;100.00;97768.19;4997087;28;20093;-57
2022/01/25 04:13:44;;;;;;;99.68;20.67;;;;;;;3.56;100.00;97770.66;5001084;28;20097;-59
2022/01/25 04:16:18;;;;;;;84.18;19.40;;;;;;;3.13;100.00;97763.03;5001629;28;20703;-57
2022/01/25 04:18:58;;;;;;;76.30;19.20;;;;;;;3.08;100.00;97763.25;4994935;28;20065;-56
2022/01/25 04:21:44;;;;;;;89.28;18.92;;;;;;;2.68;100.00;97766.69;4991711;28;20073;-57
2022/01/25 04:26:59;;;;;;;89.90;19.77;;;;;;;2.64;100.00;97759.91;5004367;28;20073;-55
2022/01/25 04:29:28;;;;;;;72.78;18.27;;;;;;;2.51;100.00;97759.56;4993471;28;20089;-59
2022/01/25 04:31:57;;;;;;;63.47;17.25;;;;;;;2.77;100.00;97753.28;4994016;28;20555;-56
2022/01/25 04:34:43;;;;;;;46.58;16.65;;;;;;;2.78;100.00;97742.78;4991094;28;20062;-59
2022/01/25 04:53:55;;;;;;;64.30;18.17;;;;;;;2.58;100.00;97747.97;4992925;28;20074;-58
2022/01/25 04:56:30;;;;;;;62.78;17.38;;;;;;;2.46;100.00;97749.34;4995840;28;20085;-60
2022/01/25 04:59:05;;;;;;;58.75;16.75;;;;;;;2.92;100.00;97743.97;4988628;28;20614;-53
2022/01/25 05:01:36;;;;;;;50.15;16.90;;;;;;;2.79;100.00;97749.72;4978029;28;20073;-57
2022/01/25 05:04:09;;;;;;;42.70;14.40;;;;;;;2.64;100.00;97749.50;4986365;28;20081;-60
2022/01/25 05:06:39;;;;;;;47.70;14.50;;;;;;;2.33;100.00;97756.81;4986360;28;20066;-57
2022/01/25 05:09:10;;;;;;;45.08;14.95;;;;;;;2.27;100.00;97753.59;4975602;28;20694;-54
2022/01/25 05:11:44;;;;;;;45.30;14.18;;;;;;;2.27;100.00;97754.47;4971930;28;20113;-59
2022/01/25 05:14:20;;;;;;;47.75;15.32;;;;;;;1.89;100.00;97746.44;4978856;28;20074;-59
2022/01/25 05:16:57;;;;;;;33.55;11.60;;;;;;;1.83;100.00;97761.41;4987908;28;20089;-58
2022/01/25 05:22:19;;;;;;;31.00;11.13;;;;;;;1.79;100.00;97758.09;4949551;28;20062;-58
2022/01/25 05:24:49;;;;;;;41.72;13.25;;;;;;;1.89;100.00;97756.81;4974000;28;20066;-60
2022/01/25 05:27:20;;;;;;;39.60;12.93;;;;;;;1.72;100.00;97760.94;4975824;28;20065;-57
2022/01/25 05:29:48;;;;;;;36.47;13.63;;;;;;;2.45;100.00;97760.69;4973799;28;20097;-58
2022/01/25 05:32:18;;;;;;;40.40;14.02;;;;;;;2.41;100.00;97758.25;4973719;28;20093;-56
2022/01/25 05:34:47;;;;;;;37.67;13.68;;;;;;;2.68;100.00;97759.72;4971996;28;20067;-58
2022/01/25 05:37:15;;;;;;;36.92;13.57;;;;;;;2.91;100.00;97753.53;4971708;28;20077;-55
2022/01/25 05:39:46;;;;;;;49.67;13.98;;;;;;;2.58;100.00;97758.41;4983298;28;20596;-59
2022/01/25 05:45:10;;;;;;;39.95;13.07;;;;;;;1.99;100.00;97756.44;5000789;28;20069;-60
2022/01/25 05:47:42;;;;;;;39.88;13.32;;;;;;;1.98;100.00;97762.56;4990623;28;20536;-59
2022/01/25 05:50:12;;;;;;;44.83;14.05;;;;;;;1.95;100.00;97758.31;4991930;28;20548;-56
2022/01/25 05:52:41;;;;;;;27.00;12.02;;;;;;;1.65;100.00;97768.13;4991800;28;20073;-57
2022/01/25 05:55:10;;;;;;;38.30;12.90;;;;;;;1.73;100.00;97765.28;4994013;28;20066;-59
2022/01/25 05:57:38;;;;;;;33.17;12.60;;;;;;;1.57;100.00;97765.84;4993574;28;20042;-57
2022/01/25 06:00:09;;;;;;;42.65;13.77;;;;;;;1.61;100.00;97766.56;4998168;28;20061;-57
2022/01/25 06:02:37;;;;;;;38.00;13.25;;;;;;;1.98;100.00;97770.38;4989292;28;20078;-58
2022/01/25 06:05:08;;;;;;;30.95;11.02;;;;;;;1.41;100.00;97767.28;4995272;28;20085;-54
2022/01/25 06:07:36;;;;;;;49.63;14.18;;;;;;;1.84;100.00;97763.09;4996822;28;20686;-56
2022/01/25 06:10:06;;;;;;;50.95;13.07;;;;;;;1.82;100.00;97759.69;4995512;28;20070;-57
2022/01/25 06:12:34;;;;;;;42.17;14.40;;;;;;;2.17;100.00;97760.94;4994853;28;20100;-58
2022/01/25 06:15:03;;;;;;;56.03;14.55;;;;;;;2.32;100.00;97752.50;4993149;28;20088;-56
2022/01/25 06:17:31;;;;;;;45.83;13.05;;;;;;;1.75;100.00;97750.44;4991076;28;20082;-58
2022/01/25 06:20:00;;;;;;;37.33;12.32;;;;;;;1.77;100.00;97751.25;4992659;28;20472;-59
2022/01/25 06:22:29;;;;;;;46.10;12.38;;;;;;;1.65;100.00;97745.59;4992363;28;20492;-59
2022/01/25 06:24:58;;;;;;;47.67;13.05;;;;;;;1.81;100.00;97747.63;4997863;28;20058;-56
2022/01/25 06:27:26;;;;;;;41.28;12.30;;;;;;;1.71;100.00;97743.66;4993784;28;20608;-56
2022/01/25 06:29:55;;;;;;;40.25;12.57;;;;;;;1.73;100.00;97739.28;4996599;28;20070;-54
2022/01/25 06:32:23;;;;;;;45.33;13.15;;;;;;;1.61;100.00;97743.16;5001398;28;20082;-59
2022/01/25 06:34:52;;;;;;;49.05;13.15;;;;;;;1.66;100.00;97751.66;5001739;28;20132;-55
2022/01/25 06:37:20;;;;;;;50.55;12.30;;;;;;;1.46;100.00;97755.00;4977246;28;20062;-55
2022/01/25 06:39:50;;;;;;;37.78;11.60;;;;;;;1.39;100.00;97756.13;4975586;28;20066;-57
2022/01/25 06:42:19;;;;;;;31.48;11.10;;;;;;;1.57;100.00;97759.78;4978815;28;20669;-53
2022/01/25 06:44:51;;;;;;;40.28;13.10;;;;;;;1.55;100.00;97761.59;4996714;28;20738;-58
2022/01/25 06:47:20;;;;;;;40.38;11.90;;;;;;;1.55;100.00;97757.25;4998948;28;20563;-58
2022/01/25 06:49:48;;;;;;;47.70;12.55;;;;;;;1.42;100.00;97769.84;5001268;28;20066;-54
2022/01/25 06:52:17;;;;;;;39.38;13.32;;;;;;;1.75;100.00;97766.03;5000941;28;20065;-57
2022/01/25 06:54:45;;;;;;;42.95;13.70;;;;;;;1.55;100.00;97767.66;5000583;28;20073;-54
2022/01/25 06:57:15;;;;;;;28.73;10.45;;;;;;;1.34;100.00;97776.22;4990349;28;20510;-56
2022/01/25 06:59:43;;;;;;;36.83;13.38;;;;;;;1.78;100.00;97777.19;4993717;28;20082;-58
2022/01/25 07:02:13;;;;;;;43.35;13.27;;;;;;;1.88;100.00;97785.47;5000879;28;20073;-58
2022/01/25 07:04:42;;;;;;;32.13;13.45;;;;;;;2.18;100.00;97787.81;4999331;28;20057;-59
2022/01/25 07:07:10;;;;;;;38.88;13.02;;;;;;;2.21;100.00;97788.53;5000635;28;20065;-59
2022/01/25 07:09:39;;;;;;;38.55;13.90;;;;;;;1.91;100.00;97787.97;4998818;28;20077;-58
2022/01/25 07:12:08;;;;;;;42.85;14.18;;;;;;;1.99;100.00;97779.88;4998242;28;20058;-56
2022/01/25 07:14:39;;;;;;;51.10;15.38;;;;;;;1.87;100.00;97781.19;4994824;28;20081;-60
2022/01/25 07:17:08;;;;;;;30.75;13.90;;;;;;;2.36;100.00;97782.72;4998391;28;20056;-57
2022/01/25 07:19:36;;;;;;;36.22;12.75;;;;;;;2.35;100.00;97774.97;4978376;28;20062;-57
2022/01/25 07:22:05;;;;;;;35.65;14.10;;;;;;;2.19;100.00;97785.16;4970783;28;20050;-56
2022/01/25 07:24:34;;;;;;;30.63;12.75;;;;;;;1.81;100.00;97786.63;4983482;28;20065;-58
2022/01/25 07:27:03;;;;;;;35.28;13.93;;;;;;;2.22;100.00;97792.84;5001874;28;20086;-58
2022/01/25 07:29:31;;;;;;;35.47;14.05;;;;;;;2.43;100.00;97788.53;4996147;28;20086;-54
2022/01/25 07:32:01;;;;;;;34.25;13.13;;;;;;;2.65;100.00;97790.25;5002623;28;20066;-55
2022/01/25 07:34:32;;;;;;;41.50;14.15;;;;;;;2.53;100.00;97784.63;4993147;28;20072;-54
2022/01/25 07:37:02;;;;;;;;;;;;;;;2.44;100.00;97781.56;5000228;28;20078;-57
2022/01/25 07:39:35;;;;;;;25.52;10.80;;;;;;;1.88;100.00;97785.47;4997534;28;19961;-54
2022/01/25 07:42:08;;;;;;;16.00;7.60;;;;;;;1.49;100.00;97780.88;4992233;28;20601;-56
2022/01/25 07:44:39;;;;;;;41.53;12.38;;;;;;;1.89;100.00;97777.63;4994795;28;20173;-54
2022/01/25 07:47:12;;;;;;;28.05;11.20;;;;;;;1.41;100.00;97791.56;4999164;28;20078;-55
2022/01/25 07:49:42;;;;;;;55.65;12.43;;;;;;;1.81;100.00;97786.63;4998008;28;20073;-55
2022/01/25 07:52:15;;;;;;;44.22;12.45;;;;;;;1.85;100.00;97789.03;5000484;28;20124;-49
2022/01/25 07:54:43;;;;;;;31.10;12.35;;;;;;;2.17;100.00;97788.69;4993576;28;20073;-55
2022/01/25 07:57:11;;;;;;;33.10;12.27;;;;;;;2.34;100.00;97783.69;4997553;28;20074;-52
2022/01/25 07:59:40;;;;;;;30.60;12.80;;;;;;;1.96;100.00;97793.88;4997007;28;20081;-57
2022/01/25 08:02:09;;;;;;;32.00;12.93;;;;;;;2.11;100.00;97802.81;4996159;28;20084;-56
2022/01/25 08:04:53;;;;;;;25.65;11.57;;;;;;;2.06;100.00;97807.34;4991716;28;20062;-55
2022/01/25 08:07:35;;;;;;;28.50;11.77;;;;;;;2.34;100.00;97804.50;4975931;28;20073;-53
2022/01/25 08:10:15;;;;;;;;;;;;;;;2.58;100.00;97797.47;4993530;28;20061;-57
2022/01/25 08:12:59;;;;;;;22.88;11.07;;;;;;;2.43;100.00;97796.34;4986422;28;19948;-55
2022/01/25 08:15:45;;;;;;;24.65;11.25;;;;;;;2.44;100.00;97792.81;4958123;28;20085;-55
2022/01/25 08:18:30;;;;;;;25.50;11.43;;;;;;;2.67;100.00;97799.69;4968735;28;20518;-58
2022/01/25 08:21:22;;;;;;;21.15;10.27;;;;;;;2.23;100.00;97788.47;4959070;28;20058;-55
2022/01/25 08:24:20;;;;;;;26.67;12.25;;;;;;;2.38;100.00;97786.13;4890794;29;20072;-48
2022/01/25 08:27:02;;;;;;;25.50;11.93;;;;;;;2.77;100.00;97784.53;4908360;28;20450;-53
2022/01/25 08:29:34;;;;;;;22.40;11.10;;;;;;;2.34;100.00;97781.94;4948027;28;20075;-54
2022/01/25 08:32:20;;;;;;;22.17;11.02;;;;;;;2.55;100.00;97776.78;4963550;28;20077;-50
2022/01/25 08:35:12;;;;;;;22.88;10.70;;;;;;;2.50;100.00;97778.72;4965395;28;20439;-52
2022/01/25 08:37:58;;;;;;;22.50;10.32;;;;;;;2.37;100.00;97775.75;4968193;28;20429;-48
2022/01/25 08:40:41;;;;;;;24.48;10.88;;;;;;;2.40;100.00;97786.03;4970239;28;20085;-53
2022/01/25 08:43:24;;;;;;;27.98;13.18;;;;;;;2.77;100.00;97781.94;4979211;28;20058;-50
2022/01/25 08:45:56;;;;;;;27.80;12.80;;;;;;;2.90;100.00;97785.72;4987532;28;20520;-49
2022/01/25 08:48:50;;;;;;;17.38;8.77;;;;;;;2.31;100.00;97784.66;4986266;28;20069;-49
2022/01/25 08:51:38;;;;;;;26.08;12.45;;;;;;;1.94;100.00;97792.22;4927013;28;20071;-48
2022/01/25 08:54:26;;;;;;;26.58;12.80;;;;;;;2.64;100.00;97781.59;4867261;29;20069;-48
2022/01/25 08:57:04;;;;;;;23.58;12.13;;;;;;;2.89;100.00;97783.16;4865504;29;20156;-52
2022/01/25 08:59:56;;;;;;;29.02;13.30;;;;;;;2.93;100.00;97777.78;4863976;29;20065;-53
2022/01/25 09:02:25;;;;;;;27.15;13.45;;;;;;;3.02;100.00;97785.19;4887549;29;20091;-51
2022/01/25 09:04:53;;;;;;;32.60;15.10;;;;;;;3.12;100.00;97787.41;4931360;28;20458;-54
2022/01/25 09:07:22;;;;;;;30.40;13.18;;;;;;;2.91;100.00;97791.78;4972454;28;20062;-57
2022/01/25 09:09:52;;;;;;;25.35;12.00;;;;;;;2.77;100.00;97793.19;4984623;28;20068;-49
2022/01/25 09:12:20;;;;;;;27.95;12.40;;;;;;;2.36;100.00;97793.13;4999718;28;20065;-48
2022/01/25 09:14:48;;;;;;;28.00;10.73;;;;;;;2.37;100.00;97791.38;4995459;28;20080;-56
2022/01/25 09:17:17;;;;;;;21.90;10.88;;;;;;;2.12;100.00;97796.69;4999118;28;20085;-51
2022/01/25 09:19:45;;;;;;;35.40;12.50;;;;;;;2.38;100.00;97786.13;5002085;28;20076;-50
2022/01/25 09:22:14;;;;;;;35.97;12.38;;;;;;;2.47;100.00;97795.31;4993957;28;20081;-54
2022/01/25 09:24:42;;;;;;;30.27;13.23;;;;;;;2.73;100.00;97793.41;4992997;28;20074;-51
2022/01/25 09:27:12;;;;;;;26.88;12.30;;;;;;;2.52;100.00;97798.59;4993422;28;20520;-55
2022/01/25 09:29:41;;;;;;;31.02;14.68;;;;;;;3.21;100.00;97792.25;4991713;28;20081;-55
2022/01/25 09:32:09;;;;;;;29.60;13.63;;;;;;;3.04;100.00;97791.19;4997086;28;20065;-54
2022/01/25 09:34:38;;;;;;;35.47;14.00;;;;;;;3.00;100.00;97794.00;4978767;28;20074;-51
2022/01/25 09:37:06;;;;;;;41.28;13.90;;;;;;;3.01;100.00;97801.75;4971681;28;20085;-53
2022/01/25 09:39:35;;;;;;;34.35;13.57;;;;;;;2.77;100.00;97808.00;4974227;28;20069;-54
2022/01/25 09:42:08;;;;;;;32.70;14.48;;;;;;;2.44;100.00;97810.19;4973206;28;20070;-53
2022/01/25 09:44:40;;;;;;;30.48;14.25;;;;;;;2.57;100.00;97812.25;4973757;28;20058;-51
2022/01/25 09:47:09;;;;;;;24.65;12.63;;;;;;;2.88;100.00;97811.00;4974079;28;20084;-56
2022/01/25 09:49:39;;;;;;;25.13;11.68;;;;;;;2.23;100.00;97820.53;4972784;28;20081;-50
2022/01/25 09:52:09;;;;;;;23.88;12.63;;;;;;;2.74;100.00;97818.53;4996835;28;20095;-56
2022/01/25 09:54:37;;;;;;;22.93;11.83;;;;;;;2.47;100.00;97812.69;4991744;28;20700;-52
2022/01/25 09:57:06;;;;;;;21.58;12.73;;;;;;;2.29;100.00;97812.50;4995932;28;20472;-53
2022/01/25 09:59:36;;;;;;;29.38;14.68;;;;;;;2.47;100.00;97821.34;4996033;28;20081;-55
2022/01/25 10:02:06;;;;;;;28.58;14.57;;;;;;;3.15;100.00;97816.81;5005122;28;20077;-57
2022/01/25 10:04:41;;;;;;;27.20;14.55;;;;;;;3.40;100.00;97805.31;5005259;28;20062;-53
2022/01/25 10:07:11;;;;;;;27.38;14.90;;;;;;;-146.19;100.00;58918.88;5003696;28;20114;-51
2022/01/25 10:09:41;;;;;;;29.70;15.52;;;;;;;-146.19;100.00;58918.88;4997133;28;20069;-55
2022/01/25 10:12:19;;;;;;;29.55;15.73;;;;;;;-146.19;100.00;58918.88;5001145;28;20058;-50
2022/01/25 10:14:55;;;;;;;37.72;19.42;;;;;;;-146.19;100.00;58918.88;5008964;28;20081;-49
2022/01/25 10:17:32;;;;;;;32.30;17.95;;;;;;;-146.19;100.00;58918.88;5007355;28;20508;-50
2022/01/25 10:20:01;;;;;;;31.98;17.45;;;;;;;-146.19;100.00;58918.88;5000999;28;20062;-52
2022/01/25 10:22:42;;;;;;;28.55;16.52;;;;;;;-146.19;100.00;58918.88;4995359;28;20338;-51
2022/01/25 10:25:10;;;;;;;30.27;17.23;;;;;;;-146.19;100.00;58918.88;5003072;28;20068;-51
2022/01/25 10:28:00;;;;;;;28.67;16.20;;;;;;;-146.19;100.00;58918.88;5001685;28;20112;-54
2022/01/25 10:30:31;;;;;;;30.85;16.23;;;;;;;-146.19;100.00;58918.88;5003105;28;20061;-54
2022/01/25 10:33:02;;;;;;;32.35;18.23;;;;;;;-146.19;100.00;58918.88;4999030;28;20073;-56
2022/01/25 10:35:31;;;;;;;29.73;16.92;;;;;;;-146.19;100.00;58918.88;5001202;28;20093;-55
2022/01/25 10:37:59;;;;;;;30.88;17.15;;;;;;;-146.19;100.00;58918.88;5008688;28;20089;-52
2022/01/25 10:40:38;;;;;;;20.67;10.95;;;;;;;-146.19;100.00;58918.88;4998940;28;20520;-50
2022/01/25 10:43:07;;;;;;;30.10;16.52;;;;;;;-146.19;100.00;58918.88;4994623;28;20074;-55
2022/01/25 10:45:35;;;;;;;28.10;15.55;;;;;;;-146.19;100.00;58918.88;4997165;28;20077;-54
2022/01/25 10:48:05;;;;;;;31.27;17.40;;;;;;;-146.19;100.00;58918.88;4998328;28;20155;-55
2022/01/25 10:50:34;;;;;;;28.45;16.80;;;;;;;-146.19;100.00;58918.88;4993686;28;20503;-54
2022/01/25 10:53:06;;;;;;;29.55;17.48;;;;;;;-146.19;100.00;58918.88;5010928;28;20081;-53
2022/01/25 10:55:38;;;;;;;29.33;16.38;;;;;;;-146.19;100.00;58918.88;5012100;28;20073;-49
2022/01/25 10:58:07;;;;;;;24.95;14.60;;;;;;;-146.19;100.00;58918.88;5001606;28;20076;-52
2022/01/25 11:00:40;;;;;;;27.63;15.35;;;;;;;-146.19;100.00;58918.88;4997451;28;20066;-51
2022/01/25 11:03:10;;;;;;;30.63;16.77;;;;;;;-146.19;100.00;58918.88;5002314;28;20065;-56
2022/01/25 11:05:43;;;;;;;29.20;17.05;;;;;;;-146.19;100.00;58918.88;4994299;28;20093;-50
2022/01/25 11:08:18;;;;;;;30.25;18.55;;;;;;;-146.19;100.00;58918.88;4996737;28;20089;-55
2022/01/25 11:10:52;;;;;;;27.85;16.33;;;;;;;-146.19;100.00;58918.88;4976399;28;20059;-56
2022/01/25 11:13:38;;;;;;;28.95;17.10;;;;;;;3.50;100.00;97770.09;4973446;28;20070;-51
2022/01/25 11:16:09;;;;;;;30.48;16.92;;;;;;;3.73;100.00;97766.44;4975803;28;20069;-49
2022/01/25 11:18:40;;;;;;;31.63;18.05;;;;;;;4.49;100.00;97759.38;4976508;28;20071;-56
2022/01/25 11:21:10;;;;;;;28.75;17.15;;;;;;;3.93;100.00;97769.00;4978381;28;20066;-52
2022/01/25 11:23:41;;;;;;;27.58;15.90;;;;;;;3.50;100.00;97767.47;4971044;28;20105;-52
2022/01/25 11:26:11;;;;;;;30.38;17.33;;;;;;;4.36;100.00;97766.94;4975748;28;20082;-54
2022/01/25 11:28:41;;;;;;;31.17;20.25;;;;;;;4.14;100.00;97769.75;4980104;28;20508;-56
2022/01/25 11:31:22;;;;;;;26.80;17.35;;;;;;;3.99;100.00;97760.88;4975190;28;20073;-53
2022/01/25 11:33:53;;;;;;;27.95;17.30;;;;;;;4.27;100.00;97749.97;4977488;28;20070;-55
2022/01/25 11:36:22;;;;;;;29.02;17.45;;;;;;;4.73;100.00;97746.84;4978582;28;20155;-46
2022/01/25 11:38:52;;;;;;;28.88;17.83;;;;;;;4.69;100.00;97740.94;4972324;28;20070;-55
2022/01/25 11:41:23;;;;;;;28.42;17.77;;;;;;;5.19;100.00;97731.41;4976001;28;20085;-50
2022/01/25 11:44:10;;;;;;;32.15;18.83;;;;;;;4.73;100.00;97725.94;4978583;28;20785;-48
2022/01/25 11:46:41;;;;;;;31.35;18.98;;;;;;;4.59;100.00;97729.25;4979839;28;20070;-54
2022/01/25 11:49:17;;;;;;;27.90;16.17;;;;;;;4.64;100.00;97729.84;4979117;28;20066;-56
2022/01/25 11:51:46;;;;;;;28.88;16.30;;;;;;;4.41;100.00;97732.78;4985365;28;20076;-52
2022/01/25 11:54:14;;;;;;;30.63;17.13;;;;;;;3.96;100.00;97734.91;5000272;28;20088;-47
2022/01/25 11:56:43;;;;;;;27.30;16.75;;;;;;;3.86;100.00;97732.81;5001720;28;20109;-49
2022/01/25 11:59:15;;;;;;;27.42;16.60;;;;;;;4.44;100.00;97720.41;4996801;28;20355;-52
2022/01/25 12:01:50;;;;;;;29.83;17.15;;;;;;;4.51;100.00;97721.81;5001349;28;20066;-53
2022/01/25 12:04:20;;;;;;;30.98;17.67;;;;;;;5.25;100.00;97712.81;5006085;28;20057;-54
2022/01/25 12:06:59;;;;;;;30.83;19.08;;;;;;;5.71;100.00;97710.31;4998526;28;20085;-56
2022/01/25 12:09:44;;;;;;;32.10;18.00;;;;;;;5.35;100.00;97710.56;4997290;28;20524;-54
2022/01/25 12:12:14;;;;;;;28.58;17.42;;;;;;;5.46;100.00;97711.66;4994791;28;20073;-55
2022/01/25 12:14:45;;;;;;;30.05;18.13;;;;;;;5.58;100.00;97702.31;5001714;28;20089;-55
2022/01/25 12:17:17;;;;;;;29.48;17.70;;;;;;;5.18;100.00;97706.22;4996215;28;20101;-53
2022/01/25 12:19:50;;;;;;;28.45;17.80;;;;;;;5.00;100.00;97708.84;5000027;28;20073;-49
2022/01/25 12:22:35;;;;;;;28.00;16.10;;;;;;;4.83;100.00;97705.44;5000887;28;20088;-52
2022/01/25 12:25:11;;;;;;;28.33;16.83;;;;;;;4.63;100.00;97699.44;4996231;28;20085;-55
2022/01/25 12:27:51;;;;;;;31.48;18.10;;;;;;;5.05;100.00;97703.38;4992712;28;20528;-53
2022/01/25 12:30:32;;;;;;;28.85;16.98;;;;;;;5.22;100.00;97702.50;4998941;28;20073;-52
2022/01/25 12:33:02;;;;;;;27.83;16.50;;;;;;;5.07;100.00;97693.69;5001879;28;20062;-51
2022/01/25 12:35:36;;;;;;;;;;;;;;;4.94;100.00;97698.72;4998717;28;20092;-53
2022/01/25 12:38:07;;;;;;;31.05;16.65;;;;;;;4.55;100.00;97691.16;5009765;28;19960;-55
2022/01/25 12:40:45;;;;;;;27.63;16.70;;;;;;;4.21;100.00;97691.97;4996943;28;20074;-55
2022/01/25 12:43:18;;;;;;;31.23;18.10;;;;;;;4.59;100.00;97691.84;5000452;28;20065;-55
2022/01/25 12:45:50;;;;;;;25.77;15.80;;;;;;;4.78;100.00;97691.75;4996792;28;20065;-55
2022/01/25 12:48:21;;;;;;;31.25;17.38;;;;;;;5.04;100.00;97687.78;5006767;28;20070;-55
2022/01/25 12:50:53;;;;;;;28.17;16.95;;;;;;;5.14;100.00;97681.16;4998558;28;20078;-50